Laytonville, California
Current Conditions -  °F | °C
As of 12:56 PM on Saturday 20 Dec 2014 (Local Time) from KUKI Reporting Station
Light Rain Light Rain  
Wind Chill: 54°   Ceiling: 2100
Heat Index: 54°   Visibility: 10mi
Dew Point: 51°   Wind: 9mph
Humidity: 90%   Direction: 160°SSE
Pressure: 30.14"   Gusts: NA
Location:  39.69°N, 123.49°W
Report Text: KUKI 202056Z AUTO 16008KT 10SM -RA SCT017 BKN021 OVC027 12/11 A3014 RMK AO2 SLP203 P0001 60002 T01220106 58014
Loading
Personal Weather Stations






























Interactive Weather Map New forecast layout! Learn more

10-Day Weather Forecast

Advertisements
Track Severe Weather on mobile